createdAt,value
2022-10-11T00:00:27.599Z,65.5
2022-10-11T00:01:32.146Z,65.09
2022-10-11T00:02:36.425Z,65.56
2022-10-11T00:03:40.657Z,65.28
2022-10-11T00:04:44.885Z,65.5
2022-10-11T00:05:49.114Z,65.11
2022-10-11T00:06:53.352Z,66.1
2022-10-11T00:07:57.600Z,65.88
2022-10-11T00:09:01.816Z,65.93
2022-10-11T00:10:06.073Z,65.59
2022-10-11T00:11:10.299Z,66.25
2022-10-11T00:12:14.529Z,65.79
2022-10-11T00:13:18.787Z,65.8
2022-10-11T00:14:23.006Z,65.61
2022-10-11T00:15:27.265Z,66.07
2022-10-11T00:16:31.504Z,66.3
2022-10-11T00:17:35.784Z,65.87
2022-10-11T00:18:40.018Z,65.8
2022-10-11T00:19:44.271Z,65.46
2022-10-11T00:20:48.494Z,65.53
2022-10-11T00:21:52.755Z,65.89
2022-10-11T00:22:56.983Z,65.72
2022-10-11T00:24:01.204Z,65.9
2022-10-11T00:25:05.404Z,65.67
2022-10-11T00:26:10.976Z,66.07
2022-10-11T00:27:15.240Z,65.83
2022-10-11T00:28:19.734Z,66.1
2022-10-11T00:29:24.038Z,65.81
2022-10-11T00:30:28.251Z,66.24
2022-10-11T00:31:37.405Z,65.81
2022-10-11T00:32:42.686Z,66.35
2022-10-11T00:33:46.931Z,65.85
2022-10-11T00:34:51.153Z,65.59
2022-10-11T00:35:55.386Z,66
2022-10-11T00:36:59.618Z,66.14
2022-10-11T00:38:03.927Z,66.13
2022-10-11T00:39:08.168Z,65.85
2022-10-11T00:40:12.408Z,66.71
2022-10-11T00:41:16.657Z,66.09
2022-10-11T00:42:20.911Z,66.67
2022-10-11T00:43:25.557Z,66.68
2022-10-11T00:44:29.788Z,66.36
2022-10-11T00:45:34.030Z,65.91
2022-10-11T00:46:38.276Z,65.9
2022-10-11T00:47:44.803Z,67.02
2022-10-11T00:48:49.051Z,66.34
2022-10-11T00:49:53.272Z,66.22
2022-10-11T00:50:57.505Z,66.49
2022-10-11T00:52:01.803Z,66.21
2022-10-11T00:53:06.057Z,66.71
2022-10-11T00:54:10.297Z,66.78
2022-10-11T00:55:14.529Z,66.53
2022-10-11T00:56:18.770Z,66.72
2022-10-11T00:57:23.021Z,66.66
2022-10-11T00:58:27.226Z,66.49
2022-10-11T00:59:31.465Z,66.71
2022-10-11T01:00:35.702Z,66.92
2022-10-11T01:01:40.154Z,66.27
2022-10-11T01:02:44.421Z,66.48
2022-10-11T01:03:48.685Z,66.55
2022-10-11T01:05:30.386Z,66.49
2022-10-11T01:06:34.769Z,66.57
2022-10-11T01:07:38.988Z,66.59
2022-10-11T01:08:43.202Z,65.94
2022-10-11T01:09:47.419Z,66.51
2022-10-11T01:10:54.163Z,65.96
2022-10-11T01:11:58.400Z,66.54
2022-10-11T01:13:02.615Z,66.47
2022-10-11T01:14:06.805Z,66.31
2022-10-11T01:15:11.035Z,66.18
2022-10-11T01:16:15.251Z,66.64
2022-10-11T01:17:19.483Z,67.03
2022-10-11T01:18:23.753Z,66.58
2022-10-11T01:19:27.984Z,66.68
2022-10-11T01:20:32.200Z,66.31
2022-10-11T01:21:36.402Z,66.13
2022-10-11T01:22:40.607Z,66.5
2022-10-11T01:23:44.832Z,66.63
2022-10-11T01:24:49.037Z,66.41
2022-10-11T01:25:53.326Z,66.73
2022-10-11T01:26:57.584Z,66.96
2022-10-11T01:28:01.805Z,67.01
2022-10-11T01:29:05.982Z,66.36
2022-10-11T01:30:10.215Z,66.96
2022-10-11T01:31:14.420Z,66.84
2022-10-11T01:32:18.637Z,66.57
2022-10-11T01:33:22.906Z,66.27
2022-10-11T01:34:27.090Z,66.57
2022-10-11T01:35:31.321Z,66.99
2022-10-11T01:36:35.620Z,66.72
2022-10-11T01:37:40.012Z,66.3
2022-10-11T01:38:44.258Z,66.63
2022-10-11T01:39:48.584Z,66.6
2022-10-11T01:40:52.895Z,66.46
2022-10-11T01:41:57.114Z,66.65
2022-10-11T01:43:01.525Z,66.99
2022-10-11T01:44:05.796Z,66.75
2022-10-11T01:45:10.147Z,66.99
2022-10-11T01:46:14.421Z,66.22
2022-10-11T01:47:18.646Z,66.44
2022-10-11T01:48:22.889Z,66
2022-10-11T01:49:27.128Z,66.88
2022-10-11T01:50:31.352Z,66.67
2022-10-11T01:51:35.615Z,67.21
2022-10-11T01:52:39.849Z,66.51
2022-10-11T01:53:44.082Z,66.55
2022-10-11T01:55:11.525Z,67.08
2022-10-11T01:56:15.738Z,66.91
2022-10-11T01:57:19.964Z,67.2
2022-10-11T01:58:24.184Z,67.15
2022-10-11T01:59:28.456Z,66.91
2022-10-11T02:00:32.797Z,66.59
2022-10-11T02:01:37.329Z,66.97
2022-10-11T02:02:41.648Z,66.77
2022-10-11T02:03:45.899Z,66.85
2022-10-11T02:04:50.105Z,67.35
2022-10-11T02:05:54.381Z,66.52
2022-10-11T02:06:58.608Z,66.94
2022-10-11T02:08:02.845Z,67.32
2022-10-11T02:09:10.135Z,66.27
2022-10-11T02:10:14.339Z,66.78
2022-10-11T02:11:18.559Z,67.05
2022-10-11T02:12:22.812Z,66.81
2022-10-11T02:13:27.035Z,67.15
2022-10-11T02:14:31.289Z,66.57
2022-10-11T02:15:35.526Z,67
2022-10-11T02:16:39.777Z,66.95
2022-10-11T02:17:44.014Z,66.51
2022-10-11T02:18:48.239Z,67.02
2022-10-11T02:19:52.471Z,66.62
2022-10-11T02:20:56.733Z,66.75
2022-10-11T02:22:01.013Z,67.2
2022-10-11T02:23:05.214Z,66.81
2022-10-11T02:24:09.582Z,66.45
2022-10-11T02:25:13.841Z,66.62
2022-10-11T02:26:18.070Z,66.7
2022-10-11T02:27:22.357Z,66.34
2022-10-11T02:28:26.849Z,66.68
2022-10-11T02:29:31.113Z,67.16
2022-10-11T02:30:35.337Z,66.59
2022-10-11T02:31:39.685Z,66.29
2022-10-11T02:32:43.922Z,66.64
2022-10-11T02:33:48.145Z,67.18
2022-10-11T02:34:52.359Z,66.5
2022-10-11T02:35:56.654Z,66.64
2022-10-11T02:37:00.933Z,66.96
2022-10-11T02:38:05.156Z,66.53
2022-10-11T02:39:09.406Z,66.79
2022-10-11T02:40:13.653Z,66.58
2022-10-11T02:41:17.887Z,66.64
2022-10-11T02:42:22.117Z,66.51
2022-10-11T02:43:26.325Z,66.85
2022-10-11T02:44:31.560Z,66.52
2022-10-11T02:45:35.808Z,66.4
2022-10-11T02:46:40.059Z,66.57
2022-10-11T02:47:44.272Z,66.25
2022-10-11T02:48:48.532Z,66.41
2022-10-11T02:49:52.750Z,66.65
2022-10-11T02:50:57.189Z,66.92
2022-10-11T02:52:01.454Z,66.35
2022-10-11T02:53:05.802Z,66.75
2022-10-11T02:54:10.029Z,66.37
2022-10-11T02:55:14.270Z,66.59
2022-10-11T02:56:18.544Z,66.82
2022-10-11T02:57:22.778Z,66.62
2022-10-11T02:58:27.011Z,66.78
2022-10-11T02:59:31.239Z,66.68
2022-10-11T03:00:35.446Z,66.73
2022-10-11T03:01:40.005Z,66.35
2022-10-11T03:02:44.267Z,66.94
2022-10-11T03:03:48.512Z,66.96
2022-10-11T03:04:52.735Z,66.81
2022-10-11T03:05:57.017Z,66.71
2022-10-11T03:07:01.244Z,66.53
2022-10-11T03:08:05.497Z,67.07
2022-10-11T03:09:09.719Z,66.76
2022-10-11T03:10:13.961Z,67.01
2022-10-11T03:11:18.227Z,67.32
2022-10-11T03:12:22.625Z,66.39
2022-10-11T03:13:26.851Z,66.99
2022-10-11T03:14:31.098Z,66.63
2022-10-11T03:15:35.345Z,66.59
2022-10-11T03:16:39.561Z,67.23
2022-10-11T03:17:43.842Z,67.18
2022-10-11T03:18:48.063Z,67.48
2022-10-11T03:19:52.318Z,66.76
2022-10-11T03:20:56.514Z,66.85
2022-10-11T03:22:00.750Z,66.99
2022-10-11T03:23:04.982Z,67.28
2022-10-11T03:24:09.220Z,67.16
2022-10-11T03:25:13.446Z,67.09
2022-10-11T03:26:17.660Z,66.96
2022-10-11T03:27:21.901Z,67.14
2022-10-11T03:28:26.581Z,66.89
2022-10-11T03:29:30.844Z,67.12
2022-10-11T03:30:35.088Z,66.51
2022-10-11T03:31:39.351Z,67.37
2022-10-11T03:32:43.546Z,66.99
2022-10-11T03:33:47.767Z,66.88
2022-10-11T03:34:52.005Z,66.31
2022-10-11T03:35:56.223Z,67.56
2022-10-11T03:37:00.471Z,67.34
2022-10-11T03:38:04.722Z,67.51
2022-10-11T03:39:08.961Z,67.32
2022-10-11T03:40:13.186Z,67.04
2022-10-11T03:41:17.422Z,67.34
2022-10-11T03:42:21.656Z,67.21
2022-10-11T03:43:25.898Z,67.37
2022-10-11T03:44:30.202Z,67.2
2022-10-11T03:45:34.415Z,67.12
2022-10-11T03:46:38.687Z,67.36
2022-10-11T03:47:42.922Z,67.49
2022-10-11T03:48:47.133Z,67.12
2022-10-11T03:49:51.356Z,67.15
2022-10-11T03:50:55.607Z,67.33
2022-10-11T03:51:59.835Z,67.32
2022-10-11T03:53:04.113Z,67.54
2022-10-11T03:54:08.329Z,67.53
2022-10-11T03:55:12.599Z,67.64
2022-10-11T03:56:17.724Z,67.49
2022-10-11T03:57:21.977Z,67.6
2022-10-11T03:58:26.215Z,67.31
2022-10-11T03:59:30.464Z,67.4
2022-10-11T04:00:34.770Z,67.71
2022-10-11T04:01:39.213Z,67.52
2022-10-11T04:02:43.481Z,67.53
2022-10-11T04:03:47.722Z,67.07
2022-10-11T04:04:51.976Z,66.66
2022-10-11T04:05:56.303Z,66.03
2022-10-11T04:07:00.523Z,66.6
2022-10-11T04:08:13.073Z,66.13
2022-10-11T04:09:17.310Z,66.25
2022-10-11T04:10:21.522Z,65.63
2022-10-11T04:11:25.766Z,65.5
2022-10-11T04:12:30.005Z,64.47
2022-10-11T04:13:34.264Z,63.77
2022-10-11T04:14:38.474Z,63.08
2022-10-11T04:15:42.695Z,62.99
2022-10-11T04:16:46.923Z,62.83
2022-10-11T04:17:51.131Z,62.27
2022-10-11T04:18:55.394Z,62.44
2022-10-11T04:19:59.637Z,62.3
2022-10-11T04:21:03.903Z,62.04
2022-10-11T04:22:08.111Z,62.12
2022-10-11T04:23:12.349Z,62.07
2022-10-11T04:24:16.589Z,61.91
2022-10-11T04:25:20.847Z,61.73
2022-10-11T04:26:25.075Z,61.66
2022-10-11T04:27:29.351Z,61.54
2022-10-11T04:28:33.750Z,61.42
2022-10-11T04:29:38.015Z,61.29
2022-10-11T04:30:42.227Z,61.28
2022-10-11T04:31:46.465Z,61.17
2022-10-11T04:32:50.695Z,61.22
2022-10-11T04:33:54.914Z,61.1
2022-10-11T04:34:59.120Z,61.17
2022-10-11T04:36:04.703Z,61.15
2022-10-11T04:37:09.177Z,61.1
2022-10-11T04:38:13.416Z,61.05
2022-10-11T04:39:17.666Z,61.1
2022-10-11T04:40:21.878Z,61.12
2022-10-11T04:41:26.095Z,61.1
2022-10-11T04:42:30.323Z,61.1
2022-10-11T04:43:34.580Z,61.05
2022-10-11T04:44:38.853Z,61.14
2022-10-11T04:45:43.089Z,61.1
2022-10-11T04:46:47.340Z,61.17
2022-10-11T04:47:51.566Z,61.14
2022-10-11T04:48:55.768Z,61.01
2022-10-11T04:49:59.982Z,61.19
2022-10-11T04:51:04.218Z,61.16
2022-10-11T04:52:08.450Z,61.13
2022-10-11T04:53:12.675Z,61.08
2022-10-11T04:54:16.940Z,61.12
2022-10-11T04:55:21.159Z,61.08
2022-10-11T04:56:25.373Z,60.96
2022-10-11T04:57:29.587Z,60.98
2022-10-11T04:58:33.834Z,61.2
2022-10-11T04:59:38.080Z,61.04
2022-10-11T05:00:42.309Z,60.92
2022-10-11T05:01:46.920Z,61.16
2022-10-11T05:02:51.318Z,61.01
2022-10-11T05:03:55.575Z,61.13
2022-10-11T05:04:59.816Z,60.97
2022-10-11T05:06:08.643Z,61.32
2022-10-11T05:07:13.068Z,61.18
2022-10-11T05:08:17.341Z,61.25
2022-10-11T05:09:21.570Z,61.36
2022-10-11T05:10:25.808Z,61.29
2022-10-11T05:11:30.138Z,61.36
2022-10-11T05:12:34.380Z,61.35
2022-10-11T05:13:38.602Z,61.38
2022-10-11T05:14:42.838Z,61.28
2022-10-11T05:15:47.094Z,61.07
2022-10-11T05:16:51.323Z,61.17
2022-10-11T05:17:55.561Z,61.24
2022-10-11T05:18:59.818Z,61.1
2022-10-11T05:20:04.079Z,61.11
2022-10-11T05:21:08.263Z,61.11
2022-10-11T05:22:12.485Z,61.08
2022-10-11T05:23:16.722Z,61.14
2022-10-11T05:24:21.147Z,61.09
2022-10-11T05:25:25.386Z,61.01
2022-10-11T05:26:29.658Z,61.08
2022-10-11T05:27:33.890Z,61.01
2022-10-11T05:28:38.348Z,61.06
2022-10-11T05:29:42.663Z,61.16
2022-10-11T05:30:46.953Z,61.03
2022-10-11T05:31:51.153Z,61.06
2022-10-11T05:32:55.394Z,61.12
2022-10-11T05:33:59.638Z,61.13
2022-10-11T05:35:03.919Z,61.15
2022-10-11T05:36:09.828Z,61.13
2022-10-11T05:37:14.199Z,61.1
2022-10-11T05:38:18.436Z,61.1
2022-10-11T05:39:22.677Z,61.12
2022-10-11T05:40:26.927Z,61.15
2022-10-11T05:41:31.179Z,61.14
2022-10-11T05:42:35.381Z,61.13
2022-10-11T05:43:39.587Z,61.12
2022-10-11T05:44:43.796Z,61.13
2022-10-11T05:45:48.077Z,61.14
2022-10-11T05:46:52.278Z,61.15
2022-10-11T05:47:56.523Z,61.19
2022-10-11T05:49:00.762Z,61.18
2022-10-11T05:50:07.682Z,61.19
2022-10-11T05:51:11.964Z,61.21
2022-10-11T05:52:16.221Z,61.24
2022-10-11T05:53:20.442Z,61.28
2022-10-11T05:54:24.924Z,61.26
2022-10-11T05:55:29.124Z,61.27
2022-10-11T05:56:33.942Z,61.28
2022-10-11T05:57:38.159Z,61.29
2022-10-11T05:58:42.399Z,61.3
2022-10-11T05:59:46.636Z,61.27
2022-10-11T06:00:51.119Z,61.27
2022-10-11T06:01:55.668Z,61.31
2022-10-11T06:02:59.884Z,61.29
2022-10-11T06:04:04.114Z,61.15
2022-10-11T06:05:08.468Z,61.11
2022-10-11T06:06:13.049Z,61.06
2022-10-11T06:07:17.286Z,60.99
2022-10-11T06:08:21.633Z,60.88
2022-10-11T06:09:25.858Z,60.75
2022-10-11T06:10:30.200Z,60.7
2022-10-11T06:11:34.467Z,60.64
2022-10-11T06:12:38.688Z,60.6
2022-10-11T06:13:42.913Z,60.58
2022-10-11T06:14:47.159Z,60.57
2022-10-11T06:15:51.388Z,60.57
2022-10-11T06:16:55.638Z,60.63
2022-10-11T06:17:59.879Z,60.61
2022-10-11T06:19:04.160Z,60.6
2022-10-11T06:20:08.412Z,60.65
2022-10-11T06:21:12.665Z,60.65
2022-10-11T06:22:16.867Z,60.65
2022-10-11T06:23:21.132Z,60.71
2022-10-11T06:24:25.426Z,60.72
2022-10-11T06:25:29.925Z,60.7
2022-10-11T06:26:34.188Z,60.78
2022-10-11T06:27:38.406Z,60.81
2022-10-11T06:28:43.019Z,60.77
2022-10-11T06:29:47.541Z,60.8
2022-10-11T06:30:51.822Z,60.84
2022-10-11T06:31:56.099Z,60.95
2022-10-11T06:33:06.387Z,61.03
2022-10-11T06:34:10.598Z,61.04
2022-10-11T06:35:14.832Z,61.07
2022-10-11T06:36:20.123Z,61.09
2022-10-11T06:37:24.422Z,61.12
2022-10-11T06:38:28.665Z,61.19
2022-10-11T06:39:32.921Z,61.21
2022-10-11T06:40:37.159Z,61.22
2022-10-11T06:41:41.387Z,61.24
2022-10-11T06:42:45.704Z,61.17
2022-10-11T06:43:49.969Z,61.18
2022-10-11T06:44:54.180Z,61.25
2022-10-11T06:45:58.402Z,61.27
2022-10-11T06:47:02.673Z,61.15
2022-10-11T06:48:06.905Z,61.21
2022-10-11T06:49:11.182Z,61.12
2022-10-11T06:50:15.402Z,61.27
2022-10-11T06:51:19.677Z,61.26
2022-10-11T06:52:26.924Z,61.2
2022-10-11T06:53:31.534Z,61.26
2022-10-11T06:54:35.750Z,61.33
2022-10-11T06:55:39.994Z,61.36
2022-10-11T06:56:44.242Z,61.4
2022-10-11T06:57:48.632Z,61.3
2022-10-11T06:58:52.876Z,61.15
2022-10-11T06:59:57.102Z,61.17
2022-10-11T07:01:01.638Z,61.16
2022-10-11T07:02:05.899Z,61.14
2022-10-11T07:03:10.257Z,61.09
2022-10-11T07:04:14.483Z,61.08
2022-10-11T07:05:18.710Z,61.13
2022-10-11T07:06:22.925Z,61.11
2022-10-11T07:07:27.137Z,61.11
2022-10-11T07:08:31.408Z,61.14
2022-10-11T07:09:35.638Z,61.14
2022-10-11T07:10:39.901Z,61.15
2022-10-11T07:11:44.124Z,61.17
2022-10-11T07:12:48.344Z,61.28
2022-10-11T07:13:52.603Z,61.25
2022-10-11T07:14:56.904Z,61.24
2022-10-11T07:16:01.170Z,61.24
2022-10-11T07:17:05.419Z,61.23
2022-10-11T07:18:09.632Z,61.27
2022-10-11T07:19:13.865Z,61.23
2022-10-11T07:20:18.081Z,61.27
2022-10-11T07:21:22.322Z,61.06
2022-10-11T07:22:26.569Z,60.84
2022-10-11T07:23:30.829Z,60.6
2022-10-11T07:24:35.188Z,60.69
2022-10-11T07:25:39.512Z,60.35
2022-10-11T07:26:43.784Z,60.51
2022-10-11T07:27:48.042Z,60.03
2022-10-11T07:28:52.683Z,60.09
2022-10-11T07:29:56.991Z,60.16
2022-10-11T07:31:01.274Z,60.1
2022-10-11T07:32:05.694Z,60.11
2022-10-11T07:33:09.994Z,60.2
2022-10-11T07:34:14.260Z,60.26
2022-10-11T07:35:18.506Z,60.2
2022-10-11T07:36:23.314Z,60.03
2022-10-11T07:37:27.583Z,60.24
2022-10-11T07:38:31.907Z,60.18
2022-10-11T07:39:36.161Z,60.38
2022-10-11T07:40:40.444Z,60.3
2022-10-11T07:41:47.932Z,60.33
2022-10-11T07:42:52.199Z,60.24
2022-10-11T07:43:56.444Z,60.24
2022-10-11T07:45:00.720Z,60.3
2022-10-11T07:46:06.775Z,60.24
2022-10-11T07:47:13.494Z,60.2
2022-10-11T07:48:17.727Z,60.26
2022-10-11T07:49:22.226Z,60.2
2022-10-11T07:50:26.575Z,60.17
2022-10-11T07:51:30.777Z,60.05
2022-10-11T07:52:36.034Z,60.06
2022-10-11T07:53:40.285Z,60.04
2022-10-11T07:54:44.500Z,60.03
2022-10-11T07:55:48.860Z,60.05
2022-10-11T07:56:53.118Z,59.98
2022-10-11T07:57:57.458Z,59.89
2022-10-11T07:59:01.735Z,59.93
2022-10-11T08:00:05.961Z,59.93
2022-10-11T08:01:10.478Z,59.94
2022-10-11T08:02:14.792Z,59.92
2022-10-11T08:03:19.018Z,59.93
2022-10-11T08:04:23.286Z,59.95
2022-10-11T08:05:27.513Z,59.99
2022-10-11T08:06:33.059Z,59.94
2022-10-11T08:07:37.737Z,60.02
2022-10-11T08:08:42.524Z,60.03
2022-10-11T08:09:46.931Z,59.99
2022-10-11T08:10:51.325Z,59.99
2022-10-11T08:11:55.733Z,59.9
2022-10-11T08:13:06.142Z,59.94
2022-10-11T08:14:10.576Z,59.98
2022-10-11T08:15:14.989Z,60
2022-10-11T08:16:19.417Z,60
2022-10-11T08:17:23.796Z,60.03
2022-10-11T08:18:28.086Z,60.06
2022-10-11T08:19:32.459Z,60.13
2022-10-11T08:20:36.674Z,60.14
2022-10-11T08:21:40.934Z,60.11
2022-10-11T08:22:45.237Z,60.19
2022-10-11T08:23:49.478Z,60.17
2022-10-11T08:24:53.954Z,60.16
2022-10-11T08:25:58.166Z,60.17
2022-10-11T08:27:02.393Z,60.11
2022-10-11T08:28:06.851Z,60.17
2022-10-11T08:29:11.114Z,60.12
2022-10-11T08:30:15.386Z,60.04
2022-10-11T08:31:19.668Z,60.04
2022-10-11T08:32:23.903Z,60.05
2022-10-11T08:33:28.165Z,60.13
2022-10-11T08:34:32.388Z,60.16
2022-10-11T08:35:36.635Z,60.21
2022-10-11T08:36:40.929Z,60.25
2022-10-11T08:37:45.143Z,60.29
2022-10-11T08:38:49.369Z,60.23
2022-10-11T08:39:53.848Z,60.24
2022-10-11T08:40:58.094Z,60.21
2022-10-11T08:42:02.362Z,60.2
2022-10-11T08:43:06.581Z,60.19
2022-10-11T08:44:10.829Z,60.24
2022-10-11T08:45:15.083Z,60.26
2022-10-11T08:46:19.308Z,60.31
2022-10-11T08:47:23.598Z,60.23
2022-10-11T08:48:27.802Z,60.3
2022-10-11T08:49:32.067Z,60.29
2022-10-11T08:50:36.275Z,60.25
2022-10-11T08:51:40.520Z,60.32
2022-10-11T08:52:44.789Z,60.22
2022-10-11T08:53:50.063Z,60.21
2022-10-11T08:54:54.318Z,60.25
2022-10-11T08:55:58.593Z,60.26
2022-10-11T08:57:02.849Z,60.29
2022-10-11T08:58:07.089Z,60.29
2022-10-11T08:59:11.308Z,60.29
2022-10-11T09:00:15.617Z,60.34
2022-10-11T09:01:20.112Z,60.29
2022-10-11T09:02:24.376Z,60.29
2022-10-11T09:03:28.598Z,60.24
2022-10-11T09:04:32.820Z,60.28
2022-10-11T09:05:37.059Z,60.24
2022-10-11T09:06:41.311Z,60.25
2022-10-11T09:07:45.504Z,60.25
2022-10-11T09:08:49.868Z,60.25
2022-10-11T09:09:54.112Z,60.18
2022-10-11T09:10:58.333Z,60.29
2022-10-11T09:12:02.577Z,60.29
2022-10-11T09:13:06.796Z,60.28
2022-10-11T09:14:11.054Z,60.28
2022-10-11T09:15:15.268Z,60.28
2022-10-11T09:16:19.496Z,60.3
2022-10-11T09:17:23.720Z,60.31
2022-10-11T09:18:28.029Z,60.29
2022-10-11T09:19:32.428Z,60.33
2022-10-11T09:20:36.661Z,60.33
2022-10-11T09:21:40.919Z,60.3
2022-10-11T09:22:45.151Z,60.36
2022-10-11T09:23:49.352Z,60.32
2022-10-11T09:24:53.639Z,60.31
2022-10-11T09:25:57.894Z,60.32
2022-10-11T09:27:02.118Z,60.36
2022-10-11T09:28:06.378Z,60.36
2022-10-11T09:29:11.031Z,60.34
2022-10-11T09:30:15.409Z,60.32
2022-10-11T09:31:19.736Z,59.69
2022-10-11T09:32:23.946Z,58.99
2022-10-11T09:33:28.210Z,58.89
2022-10-11T09:34:32.466Z,58.26
2022-10-11T09:35:36.759Z,57.85
2022-10-11T09:36:41.271Z,57.27
2022-10-11T09:37:45.511Z,57.42
2022-10-11T09:38:49.729Z,57.05
2022-10-11T09:39:53.995Z,56.9
2022-10-11T09:40:58.235Z,56.62
2022-10-11T09:42:02.482Z,56.53
2022-10-11T09:43:06.714Z,56.6
2022-10-11T09:44:10.928Z,56
2022-10-11T09:45:15.215Z,55.99
2022-10-11T09:46:19.455Z,55.78
2022-10-11T09:47:23.689Z,55.71
2022-10-11T09:48:27.912Z,55.31
2022-10-11T09:49:32.168Z,55.5
2022-10-11T09:50:36.542Z,55.16
2022-10-11T09:51:40.808Z,55.15
2022-10-11T09:52:45.042Z,54.93
2022-10-11T09:53:49.302Z,54.6
2022-10-11T09:54:53.524Z,54.17
2022-10-11T09:55:57.800Z,55.62
2022-10-11T09:57:02.047Z,55.19
2022-10-11T09:58:06.262Z,55.08
2022-10-11T09:59:10.488Z,54.7
2022-10-11T10:00:14.758Z,54.21
2022-10-11T10:01:19.218Z,54.14
2022-10-11T10:02:23.570Z,54.14
2022-10-11T10:03:27.899Z,53.99
2022-10-11T10:04:32.470Z,53.84
2022-10-11T10:05:36.754Z,53.69
2022-10-11T10:06:44.006Z,53.88
2022-10-11T10:07:48.357Z,53.6
2022-10-11T10:08:52.621Z,53.48
2022-10-11T10:09:56.888Z,53.39
2022-10-11T10:11:01.775Z,53.36
2022-10-11T10:12:05.988Z,53.26
2022-10-11T10:13:10.330Z,53.1
2022-10-11T10:14:14.745Z,52.96
2022-10-11T10:15:19.025Z,53.12
2022-10-11T10:16:23.441Z,52.93
2022-10-11T10:17:27.677Z,52.64
2022-10-11T10:18:31.883Z,52.61
2022-10-11T10:19:38.099Z,52.69
2022-10-11T10:20:44.181Z,52.63
2022-10-11T10:21:48.363Z,52.39
2022-10-11T10:22:52.701Z,52.13
2022-10-11T10:23:56.945Z,52.17
2022-10-11T10:25:01.250Z,52.14
2022-10-11T10:26:06.837Z,52.12
2022-10-11T10:27:11.357Z,51.89
2022-10-11T10:28:15.819Z,51.82
2022-10-11T10:29:20.076Z,51.7
2022-10-11T10:30:24.301Z,51.86
2022-10-11T10:31:28.606Z,51.78
2022-10-11T10:32:32.875Z,51.65
2022-10-11T10:33:37.093Z,51.95
2022-10-11T10:34:41.408Z,51.71
2022-10-11T10:35:45.632Z,51.6
2022-10-11T10:36:49.916Z,51.47
2022-10-11T10:37:54.172Z,51.42
2022-10-11T10:38:58.521Z,51.36
2022-10-11T10:40:02.801Z,51.25
2022-10-11T10:41:07.046Z,51.33
2022-10-11T10:42:11.301Z,51.42
2022-10-11T10:43:15.634Z,51.34
2022-10-11T10:44:19.920Z,51.08
2022-10-11T10:45:24.154Z,51.22
2022-10-11T10:46:28.389Z,51
2022-10-11T10:47:32.632Z,51
2022-10-11T10:49:53.931Z,50.78
2022-10-11T10:50:58.394Z,50.8
2022-10-11T10:52:02.656Z,50.64
2022-10-11T10:53:06.930Z,50.41
2022-10-11T10:54:11.141Z,50.52
2022-10-11T10:55:15.383Z,50.45
2022-10-11T10:56:19.648Z,50.52
2022-10-11T10:57:23.896Z,50.39
2022-10-11T10:58:28.295Z,50.31
2022-10-11T10:59:32.568Z,50.25
2022-10-11T11:00:36.818Z,50.39
2022-10-11T11:01:41.253Z,50.19
2022-10-11T11:02:45.852Z,50.2
2022-10-11T11:03:50.471Z,50.33
2022-10-11T11:04:54.928Z,50.02
2022-10-11T11:05:59.167Z,50.14
2022-10-11T11:07:03.419Z,50.02
2022-10-11T11:08:07.694Z,50.27
2022-10-11T11:09:11.939Z,49.89
2022-10-11T11:10:16.249Z,49.86
2022-10-11T11:11:20.479Z,49.93
2022-10-11T11:12:24.699Z,50.01
2022-10-11T11:13:28.966Z,49.9
2022-10-11T11:14:33.283Z,50.02
2022-10-11T11:15:40.069Z,49.65
2022-10-11T11:16:44.287Z,49.59
2022-10-11T11:17:48.554Z,49.73
2022-10-11T11:18:52.817Z,49.69
2022-10-11T11:19:57.279Z,49.8
2022-10-11T11:21:01.486Z,49.87
2022-10-11T11:22:05.731Z,49.57
2022-10-11T11:23:09.954Z,49.52
2022-10-11T11:24:14.186Z,49.47
2022-10-11T11:25:18.567Z,49.57
2022-10-11T11:26:22.810Z,49.62
2022-10-11T11:27:27.051Z,49.58
2022-10-11T11:28:31.492Z,49.64
2022-10-11T11:29:35.764Z,49.62
2022-10-11T11:30:40.061Z,49.68
2022-10-11T11:31:44.275Z,49.54
2022-10-11T11:32:48.484Z,49.55
2022-10-11T11:33:52.695Z,50.21
2022-10-11T11:34:56.899Z,50.5
2022-10-11T11:36:01.145Z,50.4
2022-10-11T11:37:05.669Z,50.57
2022-10-11T11:38:09.931Z,50.45
2022-10-11T11:39:14.149Z,50.75
2022-10-11T11:40:18.416Z,50.75
2022-10-11T11:41:22.664Z,50.66
2022-10-11T11:42:26.923Z,50.75
2022-10-11T11:43:31.183Z,50.63
2022-10-11T11:44:35.441Z,50.96
2022-10-11T11:45:40.721Z,50.92
2022-10-11T11:46:45.003Z,50.94
2022-10-11T11:47:49.227Z,51.3
2022-10-11T11:48:53.556Z,51.47
2022-10-11T11:49:57.804Z,51.49
2022-10-11T11:51:02.266Z,51.6
2022-10-11T11:52:06.801Z,51.64
2022-10-11T11:53:11.030Z,51.65
2022-10-11T11:54:15.248Z,51.84
2022-10-11T11:55:19.498Z,51.87
2022-10-11T11:56:23.738Z,52.14
2022-10-11T11:57:27.962Z,52.23
2022-10-11T11:58:32.178Z,52.37
2022-10-11T11:59:36.468Z,52.24
2022-10-11T12:00:40.697Z,52.29
2022-10-11T12:01:45.241Z,52.37
2022-10-11T12:02:49.483Z,52.38
2022-10-11T12:03:53.735Z,52.59
2022-10-11T12:04:57.984Z,52.67
2022-10-11T12:06:02.255Z,52.61
2022-10-11T12:07:18.869Z,52.7
2022-10-11T12:08:24.108Z,52.81
2022-10-11T12:09:28.318Z,52.84
2022-10-11T12:10:32.552Z,52.91
2022-10-11T12:11:37.559Z,53.02
2022-10-11T12:12:42.819Z,52.98
2022-10-11T12:13:47.047Z,53.03
2022-10-11T12:14:51.351Z,52.92
2022-10-11T12:15:55.661Z,53.09
2022-10-11T12:16:59.885Z,53.1
2022-10-11T12:18:04.079Z,53.1
2022-10-11T12:19:08.340Z,53.06
2022-10-11T12:20:12.741Z,53.03
2022-10-11T12:21:16.961Z,53.12
2022-10-11T12:22:21.184Z,53.18
2022-10-11T12:23:25.469Z,53.28
2022-10-11T12:24:29.679Z,53.37
2022-10-11T12:25:33.888Z,53.42
2022-10-11T12:26:38.088Z,53.54
2022-10-11T12:27:42.916Z,53.47
2022-10-11T12:28:47.445Z,53.65
2022-10-11T12:29:52.746Z,53.44
2022-10-11T12:30:56.984Z,53.63
2022-10-11T12:32:01.221Z,53.38
2022-10-11T12:33:05.580Z,53.47
2022-10-11T12:34:09.793Z,53.96
2022-10-11T12:35:14.064Z,53.6
2022-10-11T12:36:18.299Z,53.59
2022-10-11T12:37:22.535Z,53.64
2022-10-11T12:38:26.773Z,53.67
2022-10-11T12:39:30.999Z,53.69
2022-10-11T12:40:35.287Z,53.78
2022-10-11T12:41:39.516Z,53.82
2022-10-11T12:42:43.752Z,53.73
2022-10-11T12:43:48.989Z,54.11
2022-10-11T12:44:53.255Z,54
2022-10-11T12:45:57.598Z,54.22
2022-10-11T12:47:01.888Z,54.05
2022-10-11T12:48:06.100Z,54.18
2022-10-11T12:49:10.305Z,53.98
2022-10-11T12:50:14.543Z,53.88
2022-10-11T12:51:18.803Z,54.02
2022-10-11T12:52:23.082Z,54.19
2022-10-11T12:53:27.317Z,54.14
2022-10-11T12:54:38.406Z,54.08
2022-10-11T12:55:42.711Z,54.26
2022-10-11T12:56:47.011Z,54.26
2022-10-11T12:57:52.293Z,54.32
2022-10-11T12:58:56.541Z,54.46
2022-10-11T13:00:00.783Z,54.42
2022-10-11T13:01:05.229Z,54.36
2022-10-11T13:02:09.492Z,54.55
2022-10-11T13:03:13.770Z,54.54
2022-10-11T13:04:17.998Z,54.56
2022-10-11T13:05:22.305Z,54.62
2022-10-11T13:06:26.556Z,54.65
2022-10-11T13:07:30.757Z,54.74
2022-10-11T13:08:35.023Z,54.53
2022-10-11T13:09:39.255Z,54.65
2022-10-11T13:10:43.479Z,54.76
2022-10-11T13:11:47.724Z,54.79
2022-10-11T13:12:51.986Z,54.76
2022-10-11T13:13:57.066Z,54.68
2022-10-11T13:15:01.320Z,54.79
2022-10-11T13:16:06.629Z,54.72
2022-10-11T13:17:11.105Z,54.88
2022-10-11T13:18:15.315Z,54.77
2022-10-11T13:19:19.582Z,54.84
2022-10-11T13:20:23.816Z,54.75
2022-10-11T13:21:28.049Z,54.83
2022-10-11T13:22:32.304Z,54.85
2022-10-11T13:23:36.532Z,54.7
2022-10-11T13:24:40.825Z,54.83
2022-10-11T13:25:45.091Z,54.83
2022-10-11T13:26:49.305Z,54.85
2022-10-11T13:27:53.530Z,54.73
2022-10-11T13:28:57.948Z,54.88
2022-10-11T13:30:02.199Z,54.84
2022-10-11T13:31:08.056Z,54.82
2022-10-11T13:32:12.615Z,54.8
2022-10-11T13:33:16.820Z,55
2022-10-11T13:34:25.247Z,54.86
2022-10-11T13:35:29.511Z,54.9
2022-10-11T13:36:33.758Z,54.98
2022-10-11T13:37:38.001Z,54.98
2022-10-11T13:38:42.253Z,54.93
2022-10-11T13:39:46.554Z,54.8
2022-10-11T13:40:53.168Z,54.89
2022-10-11T13:41:57.411Z,55.01
2022-10-11T13:43:02.735Z,54.86
2022-10-11T13:44:06.970Z,54.86
2022-10-11T13:45:11.218Z,54.97
2022-10-11T13:46:15.455Z,55.03
2022-10-11T13:47:19.673Z,54.97
2022-10-11T13:48:25.223Z,55.19
2022-10-11T13:49:32.308Z,55.09
2022-10-11T13:50:36.657Z,55.09
2022-10-11T13:51:41.146Z,55.08
2022-10-11T13:52:46.383Z,55.1
2022-10-11T13:53:50.670Z,55.07
2022-10-11T13:54:54.900Z,55.06
2022-10-11T13:55:59.106Z,55.05